sensor_id;sensor_type;location;lat;lon;timestamp;pressure;altitude;pressure_sealevel;temperature;humidity
62800;BME280;48842;51.046;13.796;2022-09-13T00:00:57;100096.50;;;17.40;nan
62800;BME280;48842;51.046;13.796;2022-09-13T00:03:23;100101.84;;;17.38;nan
62800;BME280;48842;51.046;13.796;2022-09-13T00:05:49;100100.09;;;17.37;nan
62800;BME280;48842;51.046;13.796;2022-09-13T00:08:15;100097.47;;;17.36;nan
62800;BME280;48842;51.046;13.796;2022-09-13T00:10:42;100096.63;;;17.35;nan
62800;BME280;48842;51.046;13.796;2022-09-13T00:13:08;100083.44;;;17.34;nan
62800;BME280;48842;51.046;13.796;2022-09-13T00:15:35;100078.19;;;17.32;nan
62800;BME280;48842;51.046;13.796;2022-09-13T00:18:00;100079.94;;;17.32;nan
62800;BME280;48842;51.046;13.796;2022-09-13T00:20:26;100083.56;;;17.29;nan
62800;BME280;48842;51.046;13.796;2022-09-13T00:22:51;100073.03;;;17.27;nan
62800;BME280;48842;51.046;13.796;2022-09-13T00:25:17;100074.81;;;17.25;nan
62800;BME280;48842;51.046;13.796;2022-09-13T00:27:42;100075.78;;;17.23;nan
62800;BME280;48842;51.046;13.796;2022-09-13T00:30:10;100071.47;;;17.20;nan
62800;BME280;48842;51.046;13.796;2022-09-13T00:32:35;100067.09;;;17.18;nan
62800;BME280;48842;51.046;13.796;2022-09-13T00:35:02;100063.66;;;17.16;nan
62800;BME280;48842;51.046;13.796;2022-09-13T00:37:27;100062.75;;;17.15;nan
62800;BME280;48842;51.046;13.796;2022-09-13T00:39:53;100059.28;;;17.13;nan
62800;BME280;48842;51.046;13.796;2022-09-13T00:42:24;100049.63;;;17.12;nan
62800;BME280;48842;51.046;13.796;2022-09-13T00:44:57;100060.25;;;17.10;nan
62800;BME280;48842;51.046;13.796;2022-09-13T00:50:13;100048.88;;;17.07;nan
62800;BME280;48842;51.046;13.796;2022-09-13T00:52:45;100033.91;;;17.06;nan
62800;BME280;48842;51.046;13.796;2022-09-13T00:55:18;100041.00;;;17.04;nan
62800;BME280;48842;51.046;13.796;2022-09-13T00:57:44;100033.09;;;17.02;nan
62800;BME280;48842;51.046;13.796;2022-09-13T01:00:13;100028.78;;;17.00;nan
62800;BME280;48842;51.046;13.796;2022-09-13T01:02:43;100018.25;;;16.98;nan
62800;BME280;48842;51.046;13.796;2022-09-13T01:05:10;100020.91;;;16.97;nan
62800;BME280;48842;51.046;13.796;2022-09-13T01:07:37;100022.75;;;16.95;nan
62800;BME280;48842;51.046;13.796;2022-09-13T01:10:04;100020.16;;;16.93;nan
62800;BME280;48842;51.046;13.796;2022-09-13T01:15:04;100013.16;;;16.90;nan
62800;BME280;48842;51.046;13.796;2022-09-13T01:17:30;100007.91;;;16.89;nan
62800;BME280;48842;51.046;13.796;2022-09-13T01:19:57;100014.09;;;16.86;nan
62800;BME280;48842;51.046;13.796;2022-09-13T01:22:49;100010.66;;;16.84;nan
62800;BME280;48842;51.046;13.796;2022-09-13T01:25:48;99999.25;;;16.82;nan
62800;BME280;48842;51.046;13.796;2022-09-13T01:31:23;99992.34;;;16.77;nan
62800;BME280;48842;51.046;13.796;2022-09-13T01:34:02;99994.09;;;16.76;nan
62800;BME280;48842;51.046;13.796;2022-09-13T01:39:39;99986.25;;;16.73;nan
62800;BME280;48842;51.046;13.796;2022-09-13T01:42:40;99980.16;;;16.71;nan
62800;BME280;48842;51.046;13.796;2022-09-13T01:45:26;99982.84;;;16.69;nan
62800;BME280;48842;51.046;13.796;2022-09-13T01:48:04;99982.88;;;16.68;nan
62800;BME280;48842;51.046;13.796;2022-09-13T01:50:58;99982.94;;;16.66;nan
62800;BME280;48842;51.046;13.796;2022-09-13T01:53:41;99977.63;;;16.66;nan
62800;BME280;48842;51.046;13.796;2022-09-13T01:56:29;99977.69;;;16.65;nan
62800;BME280;48842;51.046;13.796;2022-09-13T01:59:02;99974.09;;;16.66;nan
62800;BME280;48842;51.046;13.796;2022-09-13T02:02:03;99954.78;;;16.64;nan
62800;BME280;48842;51.046;13.796;2022-09-13T02:04:24;99957.47;;;16.62;nan
62800;BME280;48842;51.046;13.796;2022-09-13T02:07:10;99958.41;;;16.60;nan
62800;BME280;48842;51.046;13.796;2022-09-13T02:09:41;99957.56;;;16.59;nan
62800;BME280;48842;51.046;13.796;2022-09-13T02:12:13;99959.34;;;16.57;nan
62800;BME280;48842;51.046;13.796;2022-09-13T02:14:42;99951.47;;;16.55;nan
62800;BME280;48842;51.046;13.796;2022-09-13T02:17:15;99950.69;;;16.52;nan
62800;BME280;48842;51.046;13.796;2022-09-13T02:19:52;99951.63;;;16.49;nan
62800;BME280;48842;51.046;13.796;2022-09-13T02:22:22;99949.88;;;16.48;nan
62800;BME280;48842;51.046;13.796;2022-09-13T02:24:54;99955.25;;;16.45;nan
62800;BME280;48842;51.046;13.796;2022-09-13T02:27:24;99946.53;;;16.43;nan
62800;BME280;48842;51.046;13.796;2022-09-13T02:29:54;99948.31;;;16.41;nan
62800;BME280;48842;51.046;13.796;2022-09-13T02:32:25;99948.38;;;16.39;nan
62800;BME280;48842;51.046;13.796;2022-09-13T02:34:59;99954.53;;;16.40;nan
62800;BME280;48842;51.046;13.796;2022-09-13T02:37:26;99958.06;;;16.39;nan
62800;BME280;48842;51.046;13.796;2022-09-13T02:39:58;99956.34;;;16.38;nan
62800;BME280;48842;51.046;13.796;2022-09-13T02:42:40;99955.53;;;16.36;nan
62800;BME280;48842;51.046;13.796;2022-09-13T02:45:08;99952.91;;;16.34;nan
62800;BME280;48842;51.046;13.796;2022-09-13T02:47:42;99946.78;;;16.32;nan
62800;BME280;48842;51.046;13.796;2022-09-13T02:53:06;99957.41;;;16.31;nan
62800;BME280;48842;51.046;13.796;2022-09-13T03:00:50;99949.63;;;16.25;nan
62800;BME280;48842;51.046;13.796;2022-09-13T03:03:16;99957.56;;;16.25;nan
62800;BME280;48842;51.046;13.796;2022-09-13T03:05:42;99947.88;;;16.23;nan
62800;BME280;48842;51.046;13.796;2022-09-13T03:08:10;99943.53;;;16.22;nan
62800;BME280;48842;51.046;13.796;2022-09-13T03:10:47;99940.94;;;16.21;nan
62800;BME280;48842;51.046;13.796;2022-09-13T03:13:27;99936.50;;;16.21;nan
62800;BME280;48842;51.046;13.796;2022-09-13T03:16:30;99945.34;;;16.20;nan
62800;BME280;48842;51.046;13.796;2022-09-13T03:19:17;99933.91;;;16.20;nan
62800;BME280;48842;51.046;13.796;2022-09-13T03:22:02;99919.88;;;16.18;nan
62800;BME280;48842;51.046;13.796;2022-09-13T03:25:05;99920.78;;;16.17;nan
62800;BME280;48842;51.046;13.796;2022-09-13T03:30:25;99911.97;;;16.16;nan
62800;BME280;48842;51.046;13.796;2022-09-13T03:33:17;99909.34;;;16.15;nan
62800;BME280;48842;51.046;13.796;2022-09-13T03:35:56;99903.25;;;16.13;nan
62800;BME280;48842;51.046;13.796;2022-09-13T03:40:58;99892.66;;;16.14;nan
62800;BME280;48842;51.046;13.796;2022-09-13T03:43:33;99893.50;;;16.15;nan
62800;BME280;48842;51.046;13.796;2022-09-13T03:46:31;99894.38;;;16.15;nan
62800;BME280;48842;51.046;13.796;2022-09-13T03:49:01;99896.94;;;16.18;nan
62800;BME280;48842;51.046;13.796;2022-09-13T03:51:27;99898.72;;;16.18;nan
62800;BME280;48842;51.046;13.796;2022-09-13T03:53:56;99900.50;;;16.17;nan
62800;BME280;48842;51.046;13.796;2022-09-13T03:56:23;99902.22;;;16.18;nan
62800;BME280;48842;51.046;13.796;2022-09-13T03:58:49;99897.81;;;16.19;nan
62800;BME280;48842;51.046;13.796;2022-09-13T04:01:19;99903.03;;;16.20;nan
62800;BME280;48842;51.046;13.796;2022-09-13T04:03:45;99893.31;;;16.22;nan
62800;BME280;48842;51.046;13.796;2022-09-13T04:06:10;99892.38;;;16.23;nan
62800;BME280;48842;51.046;13.796;2022-09-13T04:08:35;99897.69;;;16.23;nan
62800;BME280;48842;51.046;13.796;2022-09-13T04:11:00;99898.56;;;16.24;nan
62800;BME280;48842;51.046;13.796;2022-09-13T04:13:26;99898.53;;;16.26;nan
62800;BME280;48842;51.046;13.796;2022-09-13T04:15:51;99905.56;;;16.27;nan
62800;BME280;48842;51.046;13.796;2022-09-13T04:18:17;99892.34;;;16.27;nan
62800;BME280;48842;51.046;13.796;2022-09-13T04:20:42;99897.63;;;16.27;nan
62800;BME280;48842;51.046;13.796;2022-09-13T04:23:08;99897.63;;;16.27;nan
62800;BME280;48842;51.046;13.796;2022-09-13T04:25:33;99887.94;;;16.26;nan
62800;BME280;48842;51.046;13.796;2022-09-13T04:28:01;99888.81;;;16.26;nan
62800;BME280;48842;51.046;13.796;2022-09-13T04:30:27;99895.88;;;16.26;nan
62800;BME280;48842;51.046;13.796;2022-09-13T04:32:52;99894.13;;;16.25;nan
62800;BME280;48842;51.046;13.796;2022-09-13T04:35:20;99888.84;;;16.25;nan
62800;BME280;48842;51.046;13.796;2022-09-13T04:37:45;99889.75;;;16.23;nan
62800;BME280;48842;51.046;13.796;2022-09-13T04:40:10;99881.81;;;16.23;nan
62800;BME280;48842;51.046;13.796;2022-09-13T04:42:36;99895.03;;;16.23;nan
62800;BME280;48842;51.046;13.796;2022-09-13T04:45:02;99895.00;;;16.25;nan
62800;BME280;48842;51.046;13.796;2022-09-13T04:47:27;99895.88;;;16.26;nan
62800;BME280;48842;51.046;13.796;2022-09-13T04:49:52;99897.69;;;16.23;nan
62800;BME280;48842;51.046;13.796;2022-09-13T04:52:18;99890.63;;;16.24;nan
62800;BME280;48842;51.046;13.796;2022-09-13T04:54:43;99892.34;;;16.25;nan
62800;BME280;48842;51.046;13.796;2022-09-13T04:57:09;99885.31;;;16.26;nan
62800;BME280;48842;51.046;13.796;2022-09-13T05:02:00;99888.75;;;16.28;63.87
62800;BME280;48842;51.046;13.796;2022-09-13T05:04:25;99891.31;;;16.31;63.87
62800;BME280;48842;51.046;13.796;2022-09-13T05:06:50;99886.00;;;16.32;64.07
62800;BME280;48842;51.046;13.796;2022-09-13T05:09:16;99884.28;;;16.31;64.21
62800;BME280;48842;51.046;13.796;2022-09-13T05:11:41;99888.59;;;16.34;64.28
62800;BME280;48842;51.046;13.796;2022-09-13T05:14:10;99893.03;;;16.33;64.32
62800;BME280;48842;51.046;13.796;2022-09-13T05:16:36;99886.78;;;16.36;63.96
62800;BME280;48842;51.046;13.796;2022-09-13T05:19:01;99884.97;;;16.38;64.12
62800;BME280;48842;51.046;13.796;2022-09-13T05:21:27;99875.22;;;16.40;64.13
62800;BME280;48842;51.046;13.796;2022-09-13T05:23:53;99875.84;;;16.48;63.90
62800;BME280;48842;51.046;13.796;2022-09-13T05:26:21;99875.78;;;16.51;63.96
62800;BME280;48842;51.046;13.796;2022-09-13T05:28:47;99868.63;;;16.55;63.80
62800;BME280;48842;51.046;13.796;2022-09-13T05:31:15;99870.34;;;16.57;64.02
62800;BME280;48842;51.046;13.796;2022-09-13T05:33:41;99870.28;;;16.59;63.76
62800;BME280;48842;51.046;13.796;2022-09-13T05:36:07;99864.91;;;16.62;63.80
62800;BME280;48842;51.046;13.796;2022-09-13T05:38:32;99863.97;;;16.65;63.92
62800;BME280;48842;51.046;13.796;2022-09-13T05:41:00;99878.84;;;16.67;63.67
62800;BME280;48842;51.046;13.796;2022-09-13T05:43:27;99864.69;;;16.70;63.48
62800;BME280;48842;51.046;13.796;2022-09-13T05:46:05;99863.72;;;16.72;63.56
62800;BME280;48842;51.046;13.796;2022-09-13T05:48:32;99862.78;;;16.75;63.68
62800;BME280;48842;51.046;13.796;2022-09-13T05:51:06;99863.53;;;16.79;63.57
62800;BME280;48842;51.046;13.796;2022-09-13T05:53:33;99852.81;;;16.83;63.78
62800;BME280;48842;51.046;13.796;2022-09-13T05:55:58;99839.50;;;16.86;63.54
62800;BME280;48842;51.046;13.796;2022-09-13T05:58:24;99835.94;;;16.89;63.64
62800;BME280;48842;51.046;13.796;2022-09-13T06:00:56;99829.69;;;16.91;63.90
62800;BME280;48842;51.046;13.796;2022-09-13T06:03:22;99835.72;;;16.95;63.68
62800;BME280;48842;51.046;13.796;2022-09-13T06:05:48;99831.28;;;16.97;63.88
62800;BME280;48842;51.046;13.796;2022-09-13T06:08:14;99837.38;;;16.99;63.79
62800;BME280;48842;51.046;13.796;2022-09-13T06:10:40;99834.59;;;17.04;63.59
62800;BME280;48842;51.046;13.796;2022-09-13T06:13:05;99831.00;;;17.06;63.57
62800;BME280;48842;51.046;13.796;2022-09-13T06:15:30;99837.06;;;17.10;63.45
62800;BME280;48842;51.046;13.796;2022-09-13T06:17:55;99839.56;;;17.15;63.29
62800;BME280;48842;51.046;13.796;2022-09-13T06:20:21;99832.38;;;17.18;63.42
62800;BME280;48842;51.046;13.796;2022-09-13T06:22:47;99827.78;;;17.25;63.30
62800;BME280;48842;51.046;13.796;2022-09-13T06:25:12;99824.91;;;17.31;63.48
62800;BME280;48842;51.046;13.796;2022-09-13T06:27:37;99821.09;;;17.40;63.58
62800;BME280;48842;51.046;13.796;2022-09-13T06:30:03;99827.03;;;17.48;63.37
62800;BME280;48842;51.046;13.796;2022-09-13T06:32:28;99825.84;;;17.57;63.18
62800;BME280;48842;51.046;13.796;2022-09-13T06:34:53;99828.25;;;17.65;63.14
62800;BME280;48842;51.046;13.796;2022-09-13T06:37:18;99821.03;;;17.70;62.87
62800;BME280;48842;51.046;13.796;2022-09-13T06:39:44;99829.66;;;17.75;62.52
62800;BME280;48842;51.046;13.796;2022-09-13T06:42:09;99832.16;;;17.79;62.27
62800;BME280;48842;51.046;13.796;2022-09-13T06:44:34;99821.44;;;17.83;62.14
62800;BME280;48842;51.046;13.796;2022-09-13T06:46:59;99838.00;;;17.89;62.23
62800;BME280;48842;51.046;13.796;2022-09-13T06:49:25;99836.97;;;17.95;62.01
62800;BME280;48842;51.046;13.796;2022-09-13T06:51:50;99823.56;;;18.00;62.16
62800;BME280;48842;51.046;13.796;2022-09-13T06:54:15;99830.41;;;18.05;62.20
62800;BME280;48842;51.046;13.796;2022-09-13T06:56:41;99823.09;;;18.12;61.95
62800;BME280;48842;51.046;13.796;2022-09-13T06:59:08;99818.50;;;18.17;61.88
62800;BME280;48842;51.046;13.796;2022-09-13T07:01:36;99820.94;;;18.23;61.89
62800;BME280;48842;51.046;13.796;2022-09-13T07:04:04;99816.34;;;18.28;61.84
62800;BME280;48842;51.046;13.796;2022-09-13T07:06:32;99809.00;;;18.35;61.88
62800;BME280;48842;51.046;13.796;2022-09-13T07:08:59;99816.78;;;18.41;61.90
62800;BME280;48842;51.046;13.796;2022-09-13T07:11:28;99817.44;;;18.46;61.78
62800;BME280;48842;51.046;13.796;2022-09-13T07:13:56;99813.66;;;18.54;61.60
62800;BME280;48842;51.046;13.796;2022-09-13T07:16:27;99807.19;;;18.61;61.55
62800;BME280;48842;51.046;13.796;2022-09-13T07:18:54;99797.22;;;18.67;61.58
62800;BME280;48842;51.046;13.796;2022-09-13T07:21:20;99804.03;;;18.73;61.46
62800;BME280;48842;51.046;13.796;2022-09-13T07:23:46;99798.53;;;18.79;61.44
62800;BME280;48842;51.046;13.796;2022-09-13T07:26:11;99792.09;;;18.85;61.36
62800;BME280;48842;51.046;13.796;2022-09-13T07:28:38;99800.66;;;18.93;61.43
62800;BME280;48842;51.046;13.796;2022-09-13T07:31:16;99794.25;;;18.99;61.12
62800;BME280;48842;51.046;13.796;2022-09-13T07:33:43;99787.84;;;19.05;61.22
62800;BME280;48842;51.046;13.796;2022-09-13T07:36:09;99787.56;;;19.11;61.10
62800;BME280;48842;51.046;13.796;2022-09-13T07:38:37;99802.41;;;19.16;61.17
62800;BME280;48842;51.046;13.796;2022-09-13T07:41:03;99805.69;;;19.23;60.99
62800;BME280;48842;51.046;13.796;2022-09-13T07:43:31;99809.00;;;19.28;60.81
62800;BME280;48842;51.046;13.796;2022-09-13T07:48:27;99801.66;;;19.35;60.46
62800;BME280;48842;51.046;13.796;2022-09-13T07:51:11;99798.06;;;19.36;60.51
62800;BME280;48842;51.046;13.796;2022-09-13T07:53:38;99803.31;;;19.38;60.40
62800;BME280;48842;51.046;13.796;2022-09-13T07:56:06;99802.38;;;19.39;60.35
62800;BME280;48842;51.046;13.796;2022-09-13T07:58:33;99798.88;;;19.38;60.75
62800;BME280;48842;51.046;13.796;2022-09-13T08:01:13;99798.94;;;19.36;60.69
62800;BME280;48842;51.046;13.796;2022-09-13T08:03:39;99803.38;;;19.36;60.86
62800;BME280;48842;51.046;13.796;2022-09-13T08:06:06;99803.44;;;19.34;61.53
62800;BME280;48842;51.046;13.796;2022-09-13T08:08:31;99812.28;;;19.35;62.03
62800;BME280;48842;51.046;13.796;2022-09-13T08:10:58;99819.38;;;19.34;62.32
62800;BME280;48842;51.046;13.796;2022-09-13T08:13:24;99816.72;;;19.34;62.28
62800;BME280;48842;51.046;13.796;2022-09-13T08:15:50;99817.66;;;19.33;62.81
62800;BME280;48842;51.046;13.796;2022-09-13T08:18:16;99823.88;;;19.32;63.35
62800;BME280;48842;51.046;13.796;2022-09-13T08:20:42;99829.19;;;19.32;63.87
62800;BME280;48842;51.046;13.796;2022-09-13T08:23:09;99825.69;;;19.32;64.15
62800;BME280;48842;51.046;13.796;2022-09-13T08:25:35;99829.13;;;19.34;64.54
62800;BME280;48842;51.046;13.796;2022-09-13T08:28:07;99815.78;;;19.35;64.75
62800;BME280;48842;51.046;13.796;2022-09-13T08:30:35;99826.22;;;19.40;65.15
62800;BME280;48842;51.046;13.796;2022-09-13T08:33:02;99827.91;;;19.43;65.32
62800;BME280;48842;51.046;13.796;2022-09-13T08:35:28;99840.19;;;19.45;65.20
62800;BME280;48842;51.046;13.796;2022-09-13T08:37:53;99840.91;;;19.49;65.36
62800;BME280;48842;51.046;13.796;2022-09-13T08:40:20;99830.03;;;19.55;65.59
62800;BME280;48842;51.046;13.796;2022-09-13T08:42:55;99821.00;;;19.59;65.73
62800;BME280;48842;51.046;13.796;2022-09-13T08:45:26;99816.44;;;19.63;65.92
62800;BME280;48842;51.046;13.796;2022-09-13T08:48:04;99825.28;;;19.63;65.69
62800;BME280;48842;51.046;13.796;2022-09-13T08:50:33;99828.69;;;19.67;65.81
62800;BME280;48842;51.046;13.796;2022-09-13T08:53:21;99818.78;;;19.70;66.35
62800;BME280;48842;51.046;13.796;2022-09-13T08:55:54;99831.06;;;19.73;66.15
62800;BME280;48842;51.046;13.796;2022-09-13T08:58:30;99826.47;;;19.77;66.03
62800;BME280;48842;51.046;13.796;2022-09-13T09:01:07;99830.78;;;19.81;66.00
62800;BME280;48842;51.046;13.796;2022-09-13T09:03:49;99834.13;;;19.86;66.06
62800;BME280;48842;51.046;13.796;2022-09-13T09:06:17;99826.06;;;19.87;66.06
62800;BME280;48842;51.046;13.796;2022-09-13T09:09:04;99826.84;;;19.90;66.45
62800;BME280;48842;51.046;13.796;2022-09-13T09:11:40;99831.19;;;19.92;66.38
62800;BME280;48842;51.046;13.796;2022-09-13T09:14:19;99824.00;;;19.94;66.38
62800;BME280;48842;51.046;13.796;2022-09-13T09:16:53;99819.50;;;19.96;66.20
62800;BME280;48842;51.046;13.796;2022-09-13T09:19:27;99807.84;;;19.99;66.08
62800;BME280;48842;51.046;13.796;2022-09-13T09:21:54;99803.25;;;20.02;66.13
62800;BME280;48842;51.046;13.796;2022-09-13T09:24:24;99797.81;;;20.05;66.34
62800;BME280;48842;51.046;13.796;2022-09-13T09:26:51;99799.41;;;20.10;66.34
62800;BME280;48842;51.046;13.796;2022-09-13T09:29:20;99793.09;;;20.12;66.28
62800;BME280;48842;51.046;13.796;2022-09-13T09:34:38;99794.47;;;20.21;66.30
62800;BME280;48842;51.046;13.796;2022-09-13T09:37:18;99798.69;;;20.25;66.44
62800;BME280;48842;51.046;13.796;2022-09-13T09:39:46;99798.44;;;20.31;65.96
62800;BME280;48842;51.046;13.796;2022-09-13T09:42:14;99795.56;;;20.36;65.88
62800;BME280;48842;51.046;13.796;2022-09-13T09:44:44;99791.78;;;20.42;65.86
62800;BME280;48842;51.046;13.796;2022-09-13T09:47:18;99788.91;;;20.46;65.78
62800;BME280;48842;51.046;13.796;2022-09-13T09:49:51;99783.34;;;20.51;65.43
62800;BME280;48842;51.046;13.796;2022-09-13T09:52:40;99778.69;;;20.56;65.29
62800;BME280;48842;51.046;13.796;2022-09-13T09:55:34;99773.22;;;20.59;64.83
62800;BME280;48842;51.046;13.796;2022-09-13T09:58:05;99782.78;;;20.63;64.83
62800;BME280;48842;51.046;13.796;2022-09-13T10:00:35;99773.84;;;20.64;64.67
62800;BME280;48842;51.046;13.796;2022-09-13T10:03:04;99770.28;;;20.65;64.46
62800;BME280;48842;51.046;13.796;2022-09-13T10:05:30;99757.78;;;20.67;64.50
62800;BME280;48842;51.046;13.796;2022-09-13T10:08:07;99754.19;;;20.68;64.71
62800;BME280;48842;51.046;13.796;2022-09-13T10:10:39;99752.22;;;20.72;64.52
62800;BME280;48842;51.046;13.796;2022-09-13T10:13:12;99753.88;;;20.74;64.51
62800;BME280;48842;51.046;13.796;2022-09-13T10:15:51;99741.31;;;20.78;64.62
62800;BME280;48842;51.046;13.796;2022-09-13T10:18:20;99735.69;;;20.84;64.88
62800;BME280;48842;51.046;13.796;2022-09-13T10:21:05;99737.03;;;20.93;65.16
62800;BME280;48842;51.046;13.796;2022-09-13T10:23:33;99729.53;;;21.01;64.84
62800;BME280;48842;51.046;13.796;2022-09-13T10:26:05;99734.56;;;21.07;64.54
62800;BME280;48842;51.046;13.796;2022-09-13T10:28:34;99724.44;;;21.14;64.51
62800;BME280;48842;51.046;13.796;2022-09-13T10:31:04;99732.06;;;21.22;64.45
62800;BME280;48842;51.046;13.796;2022-09-13T10:33:43;99730.81;;;21.29;64.45
62800;BME280;48842;51.046;13.796;2022-09-13T10:36:18;99728.63;;;21.37;64.22
62800;BME280;48842;51.046;13.796;2022-09-13T10:38:51;99722.03;;;21.44;64.38
62800;BME280;48842;51.046;13.796;2022-09-13T10:41:26;99720.31;;;21.61;63.79
62800;BME280;48842;51.046;13.796;2022-09-13T10:43:57;99708.41;;;21.68;63.41
62800;BME280;48842;51.046;13.796;2022-09-13T10:46:24;99713.59;;;21.71;62.88
62800;BME280;48842;51.046;13.796;2022-09-13T10:48:51;99710.13;;;21.69;62.83
62800;BME280;48842;51.046;13.796;2022-09-13T10:53:51;99708.28;;;21.71;62.77
62800;BME280;48842;51.046;13.796;2022-09-13T10:56:31;99703.16;;;21.67;62.96
62800;BME280;48842;51.046;13.796;2022-09-13T10:59:19;99705.06;;;21.65;62.83
62800;BME280;48842;51.046;13.796;2022-09-13T11:04:50;99699.81;;;21.63;62.33
62800;BME280;48842;51.046;13.796;2022-09-13T11:07:33;99696.28;;;21.63;62.30
62800;BME280;48842;51.046;13.796;2022-09-13T11:10:05;99698.00;;;21.64;62.43
62800;BME280;48842;51.046;13.796;2022-09-13T11:12:59;99692.56;;;21.65;62.25
62800;BME280;48842;51.046;13.796;2022-09-13T11:15:38;99684.50;;;21.67;62.48
62800;BME280;48842;51.046;13.796;2022-09-13T11:18:29;99685.28;;;21.69;62.44
62800;BME280;48842;51.046;13.796;2022-09-13T11:26:51;99675.59;;;21.84;62.42
62800;BME280;48842;51.046;13.796;2022-09-13T11:29:36;99671.66;;;21.91;62.18
62800;BME280;48842;51.046;13.796;2022-09-13T11:35:11;99658.63;;;22.02;61.52
62800;BME280;48842;51.046;13.796;2022-09-13T11:38:19;99655.78;;;22.05;61.05
62800;BME280;48842;51.046;13.796;2022-09-13T11:41:10;99649.06;;;22.14;59.16
62800;BME280;48842;51.046;13.796;2022-09-13T11:49:19;99654.84;;;22.54;55.53
62800;BME280;48842;51.046;13.796;2022-09-13T11:51:57;99659.06;;;22.74;54.81
62800;BME280;48842;51.046;13.796;2022-09-13T11:57:43;99647.91;;;22.98;49.85
62800;BME280;48842;51.046;13.796;2022-09-13T12:00:20;99646.28;;;23.26;49.66
62800;BME280;48842;51.046;13.796;2022-09-13T12:05:42;99646.59;;;23.35;47.59
62800;BME280;48842;51.046;13.796;2022-09-13T12:13:28;99628.09;;;23.76;48.51
62800;BME280;48842;51.046;13.796;2022-09-13T12:15:59;99632.63;;;23.90;49.16
62800;BME280;48842;51.046;13.796;2022-09-13T12:18:40;99644.06;;;23.92;47.04
62800;BME280;48842;51.046;13.796;2022-09-13T12:23:54;99630.56;;;24.08;46.48
62800;BME280;48842;51.046;13.796;2022-09-13T12:26:25;99628.19;;;24.17;46.21
62800;BME280;48842;51.046;13.796;2022-09-13T12:28:58;99634.69;;;24.13;45.26
62800;BME280;48842;51.046;13.796;2022-09-13T12:31:29;99611.72;;;24.23;45.16
62800;BME280;48842;51.046;13.796;2022-09-13T12:33:55;99622.69;;;24.33;44.89
62800;BME280;48842;51.046;13.796;2022-09-13T12:42:37;99621.88;;;24.60;43.48
62800;BME280;48842;51.046;13.796;2022-09-13T12:51:03;99597.31;;;24.94;43.68
62800;BME280;48842;51.046;13.796;2022-09-13T12:56:30;99591.41;;;24.88;43.21
62800;BME280;48842;51.046;13.796;2022-09-13T12:59:14;99592.28;;;25.02;43.79
62800;BME280;48842;51.046;13.796;2022-09-13T13:01:46;99588.88;;;25.13;43.63
62800;BME280;48842;51.046;13.796;2022-09-13T13:04:35;99591.53;;;25.13;42.47
62800;BME280;48842;51.046;13.796;2022-09-13T13:07:15;99587.34;;;25.08;41.57
62800;BME280;48842;51.046;13.796;2022-09-13T13:09:54;99592.22;;;25.16;41.41
62800;BME280;48842;51.046;13.796;2022-09-13T13:12:32;99587.38;;;25.21;41.66
62800;BME280;48842;51.046;13.796;2022-09-13T13:15:01;99590.72;;;25.25;41.73
62800;BME280;48842;51.046;13.796;2022-09-13T13:17:42;99580.09;;;25.23;41.18
62800;BME280;48842;51.046;13.796;2022-09-13T13:23:26;99582.66;;;25.25;40.30
62800;BME280;48842;51.046;13.796;2022-09-13T13:31:08;99577.41;;;25.75;40.16
62800;BME280;48842;51.046;13.796;2022-09-13T13:36:30;99582.53;;;26.28;40.09
62800;BME280;48842;51.046;13.796;2022-09-13T13:39:01;99584.34;;;26.52;38.48
62800;BME280;48842;51.046;13.796;2022-09-13T13:44:01;99571.94;;;26.62;38.16
62800;BME280;48842;51.046;13.796;2022-09-13T13:46:44;99580.09;;;26.49;38.76
62800;BME280;48842;51.046;13.796;2022-09-13T13:57:39;99562.16;;;25.75;39.69
62800;BME280;48842;51.046;13.796;2022-09-13T14:00:15;99571.09;;;25.63;39.89
62800;BME280;48842;51.046;13.796;2022-09-13T14:02:56;99583.34;;;25.54;40.29
62800;BME280;48842;51.046;13.796;2022-09-13T14:05:48;99571.44;;;25.46;40.35
62800;BME280;48842;51.046;13.796;2022-09-13T14:11:41;99558.53;;;25.51;41.26
62800;BME280;48842;51.046;13.796;2022-09-13T14:19:40;99554.16;;;25.50;40.70
62800;BME280;48842;51.046;13.796;2022-09-13T14:22:15;99550.59;;;25.49;40.50
62800;BME280;48842;51.046;13.796;2022-09-13T14:24:45;99556.19;;;25.33;40.29
62800;BME280;48842;51.046;13.796;2022-09-13T14:27:15;99550.50;;;25.12;40.28
62800;BME280;48842;51.046;13.796;2022-09-13T14:29:44;99545.75;;;25.16;40.45
62800;BME280;48842;51.046;13.796;2022-09-13T14:32:14;99547.47;;;25.04;39.79
62800;BME280;48842;51.046;13.796;2022-09-13T14:34:50;99538.03;;;25.11;40.55
62800;BME280;48842;51.046;13.796;2022-09-13T14:37:18;99538.03;;;25.11;40.45
62800;BME280;48842;51.046;13.796;2022-09-13T14:39:57;99550.28;;;25.15;41.26
62800;BME280;48842;51.046;13.796;2022-09-13T14:42:22;99538.03;;;25.11;41.13
62800;BME280;48842;51.046;13.796;2022-09-13T14:44:48;99532.06;;;25.07;41.33
62800;BME280;48842;51.046;13.796;2022-09-13T14:47:23;99537.19;;;25.11;41.49
62800;BME280;48842;51.046;13.796;2022-09-13T14:49:54;99550.72;;;25.09;41.45
62800;BME280;48842;51.046;13.796;2022-09-13T14:52:29;99534.84;;;25.06;41.95
62800;BME280;48842;51.046;13.796;2022-09-13T14:55:00;99524.53;;;25.00;41.74
62800;BME280;48842;51.046;13.796;2022-09-13T14:57:30;99532.16;;;24.93;41.77
62800;BME280;48842;51.046;13.796;2022-09-13T15:00:16;99527.13;;;24.88;42.18
62800;BME280;48842;51.046;13.796;2022-09-13T15:02:49;99526.03;;;24.78;42.36
62800;BME280;48842;51.046;13.796;2022-09-13T15:05:16;99530.09;;;24.71;42.30
62800;BME280;48842;51.046;13.796;2022-09-13T15:07:43;99529.00;;;24.73;42.76
62800;BME280;48842;51.046;13.796;2022-09-13T15:12:37;99529.44;;;24.67;43.28